METAR Data
IDs: Format: Raw Decoded Include TAF

Data at: 1015 UTC 18 Jan 2022

EPMO 181000Z 30013KT 9999 FEW026 01/M03 Q1028